Cumberland College, Kentucky
Current Conditions -  °F | °C
As of 2:26 PM on Friday 31 Oct 2014 (Local Time) from KLOZ Reporting Station
Haze Haze  
Wind Chill: 42°   Ceiling: 900
Heat Index: 46°   Visibility: 4mi
Dew Point: 42°   Wind: 8mph
Humidity: 86%   Direction: 270°W
Pressure: 29.91"   Gusts: NA
Location:  36.7356°N, 84.1501°W
Report Text: KLOZ 311826Z AUTO 27007KT 4SM BR BKN009 OVC014 08/06 A2991 RMK AO2 CIG 006V012 T00780056
Loading
Personal Weather Stations






























Interactive Weather Map
Tropical Storm Tracking
New forecast layout! Learn more

10-Day Weather Forecast

Advertisements
Track Severe Weather on mobile